sensor_id;sensor_type;location;lat;lon;timestamp;P1;durP1;ratioP1;P2;durP2;ratioP2
5483;SDS011;2764;48.794;8.326;2023-06-01T00:00:52;3.60;;;3.30;;
5483;SDS011;2764;48.794;8.326;2023-06-01T00:01:57;4.53;;;3.63;;
5483;SDS011;2764;48.794;8.326;2023-06-01T00:02:59;3.63;;;3.33;;
5483;SDS011;2764;48.794;8.326;2023-06-01T00:04:01;8.30;;;3.90;;
5483;SDS011;2764;48.794;8.326;2023-06-01T00:05:02;3.70;;;3.40;;
5483;SDS011;2764;48.794;8.326;2023-06-01T00:06:04;4.20;;;2.80;;
5483;SDS011;2764;48.794;8.326;2023-06-01T00:07:07;3.50;;;3.20;;
5483;SDS011;2764;48.794;8.326;2023-06-01T00:08:09;9.03;;;4.13;;
5483;SDS011;2764;48.794;8.326;2023-06-01T00:09:10;4.40;;;3.10;;
5483;SDS011;2764;48.794;8.326;2023-06-01T00:10:12;7.90;;;3.47;;
5483;SDS011;2764;48.794;8.326;2023-06-01T00:11:14;6.80;;;3.20;;
5483;SDS011;2764;48.794;8.326;2023-06-01T00:12:15;3.57;;;3.27;;
5483;SDS011;2764;48.794;8.326;2023-06-01T00:13:17;5.70;;;4.03;;
5483;SDS011;2764;48.794;8.326;2023-06-01T00:14:18;5.23;;;3.87;;
5483;SDS011;2764;48.794;8.326;2023-06-01T00:15:20;3.57;;;3.27;;
5483;SDS011;2764;48.794;8.326;2023-06-01T00:16:22;7.30;;;3.50;;
5483;SDS011;2764;48.794;8.326;2023-06-01T00:17:26;8.57;;;4.10;;
5483;SDS011;2764;48.794;8.326;2023-06-01T00:18:30;15.87;;;7.03;;
5483;SDS011;2764;48.794;8.326;2023-06-01T00:19:32;17.80;;;11.90;;
5483;SDS011;2764;48.794;8.326;2023-06-01T00:20:34;9.07;;;5.60;;
5483;SDS011;2764;48.794;8.326;2023-06-01T00:21:35;7.97;;;6.37;;
5483;SDS011;2764;48.794;8.326;2023-06-01T00:22:37;4.40;;;4.00;;
5483;SDS011;2764;48.794;8.326;2023-06-01T00:23:41;4.90;;;4.17;;
5483;SDS011;2764;48.794;8.326;2023-06-01T00:24:42;5.07;;;3.67;;
5483;SDS011;2764;48.794;8.326;2023-06-01T00:25:44;11.83;;;3.30;;
5483;SDS011;2764;48.794;8.326;2023-06-01T00:26:46;4.93;;;3.07;;
5483;SDS011;2764;48.794;8.326;2023-06-01T00:27:47;4.13;;;3.83;;
5483;SDS011;2764;48.794;8.326;2023-06-01T00:28:49;3.57;;;2.87;;
5483;SDS011;2764;48.794;8.326;2023-06-01T00:29:51;4.27;;;3.00;;
5483;SDS011;2764;48.794;8.326;2023-06-01T00:30:52;5.10;;;3.63;;
5483;SDS011;2764;48.794;8.326;2023-06-01T00:31:54;3.63;;;3.33;;
5483;SDS011;2764;48.794;8.326;2023-06-01T00:32:56;5.97;;;4.00;;
5483;SDS011;2764;48.794;8.326;2023-06-01T00:33:58;7.30;;;3.87;;
5483;SDS011;2764;48.794;8.326;2023-06-01T00:35:00;7.90;;;3.57;;
5483;SDS011;2764;48.794;8.326;2023-06-01T00:36:01;5.87;;;3.80;;
5483;SDS011;2764;48.794;8.326;2023-06-01T00:37:03;7.10;;;3.50;;
5483;SDS011;2764;48.794;8.326;2023-06-01T00:38:05;7.70;;;4.00;;
5483;SDS011;2764;48.794;8.326;2023-06-01T00:39:08;4.87;;;3.87;;
5483;SDS011;2764;48.794;8.326;2023-06-01T00:40:10;7.00;;;4.20;;
5483;SDS011;2764;48.794;8.326;2023-06-01T00:41:11;6.53;;;3.77;;
5483;SDS011;2764;48.794;8.326;2023-06-01T00:42:13;5.63;;;3.43;;
5483;SDS011;2764;48.794;8.326;2023-06-01T00:43:14;5.67;;;3.30;;
5483;SDS011;2764;48.794;8.326;2023-06-01T00:44:16;4.00;;;3.60;;
5483;SDS011;2764;48.794;8.326;2023-06-01T00:45:17;10.53;;;3.83;;
5483;SDS011;2764;48.794;8.326;2023-06-01T00:46:19;3.63;;;3.10;;
5483;SDS011;2764;48.794;8.326;2023-06-01T00:47:20;5.93;;;3.80;;
5483;SDS011;2764;48.794;8.326;2023-06-01T00:48:22;6.23;;;3.70;;
5483;SDS011;2764;48.794;8.326;2023-06-01T00:49:25;4.93;;;3.37;;
5483;SDS011;2764;48.794;8.326;2023-06-01T00:50:26;8.00;;;3.30;;
5483;SDS011;2764;48.794;8.326;2023-06-01T00:51:28;3.30;;;3.00;;
5483;SDS011;2764;48.794;8.326;2023-06-01T00:52:30;5.50;;;3.70;;
5483;SDS011;2764;48.794;8.326;2023-06-01T00:53:31;9.47;;;3.73;;
5483;SDS011;2764;48.794;8.326;2023-06-01T00:54:33;4.73;;;3.43;;
5483;SDS011;2764;48.794;8.326;2023-06-01T00:55:35;6.00;;;3.73;;
5483;SDS011;2764;48.794;8.326;2023-06-01T00:56:36;3.47;;;2.93;;
5483;SDS011;2764;48.794;8.326;2023-06-01T00:57:39;9.20;;;3.30;;
5483;SDS011;2764;48.794;8.326;2023-06-01T00:58:41;4.30;;;3.90;;
5483;SDS011;2764;48.794;8.326;2023-06-01T00:59:43;4.10;;;3.77;;
5483;SDS011;2764;48.794;8.326;2023-06-01T01:00:44;6.50;;;4.10;;
5483;SDS011;2764;48.794;8.326;2023-06-01T01:01:49;4.73;;;3.63;;
5483;SDS011;2764;48.794;8.326;2023-06-01T01:02:53;6.47;;;3.60;;
5483;SDS011;2764;48.794;8.326;2023-06-01T01:03:58;4.20;;;3.80;;
5483;SDS011;2764;48.794;8.326;2023-06-01T01:05:02;4.90;;;3.80;;
5483;SDS011;2764;48.794;8.326;2023-06-01T01:06:07;5.37;;;3.50;;
5483;SDS011;2764;48.794;8.326;2023-06-01T01:07:19;8.53;;;3.87;;
5483;SDS011;2764;48.794;8.326;2023-06-01T01:08:43;3.77;;;3.40;;
5483;SDS011;2764;48.794;8.326;2023-06-01T01:11:57;8.93;;;3.37;;
5483;SDS011;2764;48.794;8.326;2023-06-01T01:15:12;4.33;;;3.93;;
5483;SDS011;2764;48.794;8.326;2023-06-01T01:17:31;7.67;;;4.20;;
5483;SDS011;2764;48.794;8.326;2023-06-01T01:18:42;8.43;;;3.80;;
5483;SDS011;2764;48.794;8.326;2023-06-01T01:20:53;4.27;;;3.47;;
5483;SDS011;2764;48.794;8.326;2023-06-01T01:27:52;4.87;;;3.63;;
5483;SDS011;2764;48.794;8.326;2023-06-01T01:29:01;5.17;;;3.17;;
5483;SDS011;2764;48.794;8.326;2023-06-01T01:30:03;5.90;;;3.90;;
5483;SDS011;2764;48.794;8.326;2023-06-01T01:31:08;4.13;;;3.77;;
5483;SDS011;2764;48.794;8.326;2023-06-01T01:32:10;3.90;;;3.53;;
5483;SDS011;2764;48.794;8.326;2023-06-01T01:33:12;3.63;;;3.30;;
5483;SDS011;2764;48.794;8.326;2023-06-01T01:34:15;5.40;;;3.73;;
5483;SDS011;2764;48.794;8.326;2023-06-01T01:35:18;6.10;;;3.93;;
5483;SDS011;2764;48.794;8.326;2023-06-01T01:36:19;7.33;;;4.10;;
5483;SDS011;2764;48.794;8.326;2023-06-01T01:37:21;7.80;;;4.20;;
5483;SDS011;2764;48.794;8.326;2023-06-01T01:38:23;9.63;;;6.40;;
5483;SDS011;2764;48.794;8.326;2023-06-01T01:39:24;5.77;;;4.33;;
5483;SDS011;2764;48.794;8.326;2023-06-01T01:40:26;6.83;;;4.77;;
5483;SDS011;2764;48.794;8.326;2023-06-01T01:41:28;12.30;;;4.60;;
5483;SDS011;2764;48.794;8.326;2023-06-01T01:42:29;10.27;;;4.33;;
5483;SDS011;2764;48.794;8.326;2023-06-01T01:43:31;6.50;;;3.87;;
5483;SDS011;2764;48.794;8.326;2023-06-01T01:44:33;18.03;;;9.83;;
5483;SDS011;2764;48.794;8.326;2023-06-01T01:45:35;16.77;;;8.30;;
5483;SDS011;2764;48.794;8.326;2023-06-01T01:47:49;5.07;;;3.97;;
5483;SDS011;2764;48.794;8.326;2023-06-01T01:50:03;9.93;;;3.83;;
5483;SDS011;2764;48.794;8.326;2023-06-01T01:51:07;5.90;;;4.00;;
5483;SDS011;2764;48.794;8.326;2023-06-01T01:53:16;9.50;;;3.70;;
5483;SDS011;2764;48.794;8.326;2023-06-01T01:54:18;8.97;;;6.87;;
5483;SDS011;2764;48.794;8.326;2023-06-01T01:55:20;7.93;;;4.60;;
5483;SDS011;2764;48.794;8.326;2023-06-01T01:56:25;5.70;;;4.13;;
5483;SDS011;2764;48.794;8.326;2023-06-01T01:57:27;5.63;;;3.80;;
5483;SDS011;2764;48.794;8.326;2023-06-01T01:58:30;4.30;;;3.90;;
5483;SDS011;2764;48.794;8.326;2023-06-01T01:59:32;4.17;;;3.77;;
5483;SDS011;2764;48.794;8.326;2023-06-01T02:00:34;5.00;;;4.17;;
5483;SDS011;2764;48.794;8.326;2023-06-01T02:01:36;10.83;;;4.17;;
5483;SDS011;2764;48.794;8.326;2023-06-01T02:02:38;6.93;;;3.57;;
5483;SDS011;2764;48.794;8.326;2023-06-01T02:03:40;4.33;;;3.43;;
5483;SDS011;2764;48.794;8.326;2023-06-01T02:04:42;5.37;;;3.97;;
5483;SDS011;2764;48.794;8.326;2023-06-01T02:05:44;17.73;;;12.50;;
5483;SDS011;2764;48.794;8.326;2023-06-01T02:06:46;25.27;;;16.57;;
5483;SDS011;2764;48.794;8.326;2023-06-01T02:07:48;16.77;;;11.70;;
5483;SDS011;2764;48.794;8.326;2023-06-01T02:08:50;19.13;;;9.00;;
5483;SDS011;2764;48.794;8.326;2023-06-01T02:09:52;7.47;;;6.17;;
5483;SDS011;2764;48.794;8.326;2023-06-01T02:10:54;8.23;;;6.30;;
5483;SDS011;2764;48.794;8.326;2023-06-01T02:11:56;7.97;;;4.10;;
5483;SDS011;2764;48.794;8.326;2023-06-01T02:12:58;6.70;;;4.43;;
5483;SDS011;2764;48.794;8.326;2023-06-01T02:13:59;5.17;;;4.67;;
5483;SDS011;2764;48.794;8.326;2023-06-01T02:15:01;6.43;;;4.30;;
5483;SDS011;2764;48.794;8.326;2023-06-01T02:16:03;11.10;;;4.63;;
5483;SDS011;2764;48.794;8.326;2023-06-01T02:17:05;9.73;;;4.30;;
5483;SDS011;2764;48.794;8.326;2023-06-01T02:18:07;5.43;;;4.53;;
5483;SDS011;2764;48.794;8.326;2023-06-01T02:19:09;4.33;;;3.93;;
5483;SDS011;2764;48.794;8.326;2023-06-01T02:20:12;5.17;;;3.73;;
5483;SDS011;2764;48.794;8.326;2023-06-01T02:21:14;5.37;;;4.13;;
5483;SDS011;2764;48.794;8.326;2023-06-01T02:22:15;5.37;;;3.70;;
5483;SDS011;2764;48.794;8.326;2023-06-01T02:23:17;4.63;;;4.23;;
5483;SDS011;2764;48.794;8.326;2023-06-01T02:24:19;5.33;;;4.20;;
5483;SDS011;2764;48.794;8.326;2023-06-01T02:25:21;6.03;;;4.20;;
5483;SDS011;2764;48.794;8.326;2023-06-01T02:26:22;8.00;;;4.00;;
5483;SDS011;2764;48.794;8.326;2023-06-01T02:27:24;6.53;;;4.60;;
5483;SDS011;2764;48.794;8.326;2023-06-01T02:28:26;6.20;;;3.93;;
5483;SDS011;2764;48.794;8.326;2023-06-01T02:29:28;5.63;;;3.77;;
5483;SDS011;2764;48.794;8.326;2023-06-01T02:30:29;4.10;;;3.70;;
5483;SDS011;2764;48.794;8.326;2023-06-01T02:31:32;4.07;;;3.70;;
5483;SDS011;2764;48.794;8.326;2023-06-01T02:32:34;5.60;;;4.30;;
5483;SDS011;2764;48.794;8.326;2023-06-01T02:33:37;7.20;;;4.87;;
5483;SDS011;2764;48.794;8.326;2023-06-01T02:34:39;24.30;;;15.90;;
5483;SDS011;2764;48.794;8.326;2023-06-01T02:35:41;32.53;;;16.70;;
5483;SDS011;2764;48.794;8.326;2023-06-01T02:36:42;12.47;;;9.80;;
5483;SDS011;2764;48.794;8.326;2023-06-01T02:37:44;6.60;;;6.10;;
5483;SDS011;2764;48.794;8.326;2023-06-01T02:38:46;12.63;;;6.80;;
5483;SDS011;2764;48.794;8.326;2023-06-01T02:39:48;4.93;;;4.53;;
5483;SDS011;2764;48.794;8.326;2023-06-01T02:40:50;6.40;;;4.83;;
5483;SDS011;2764;48.794;8.326;2023-06-01T02:41:51;8.37;;;4.10;;
5483;SDS011;2764;48.794;8.326;2023-06-01T02:42:53;5.17;;;4.77;;
5483;SDS011;2764;48.794;8.326;2023-06-01T02:43:55;9.57;;;5.50;;
5483;SDS011;2764;48.794;8.326;2023-06-01T02:44:56;4.37;;;4.00;;
5483;SDS011;2764;48.794;8.326;2023-06-01T02:45:58;12.40;;;4.57;;
5483;SDS011;2764;48.794;8.326;2023-06-01T02:46:59;8.67;;;5.30;;
5483;SDS011;2764;48.794;8.326;2023-06-01T02:48:01;8.90;;;5.20;;
5483;SDS011;2764;48.794;8.326;2023-06-01T02:49:03;7.67;;;4.93;;
5483;SDS011;2764;48.794;8.326;2023-06-01T02:50:05;4.43;;;4.00;;
5483;SDS011;2764;48.794;8.326;2023-06-01T02:51:07;7.80;;;4.60;;
5483;SDS011;2764;48.794;8.326;2023-06-01T02:52:09;4.40;;;4.00;;
5483;SDS011;2764;48.794;8.326;2023-06-01T02:53:11;5.17;;;4.30;;
5483;SDS011;2764;48.794;8.326;2023-06-01T02:54:12;8.67;;;4.53;;
5483;SDS011;2764;48.794;8.326;2023-06-01T02:55:14;5.80;;;4.37;;
5483;SDS011;2764;48.794;8.326;2023-06-01T02:56:16;9.43;;;4.57;;
5483;SDS011;2764;48.794;8.326;2023-06-01T02:57:17;5.97;;;4.80;;
5483;SDS011;2764;48.794;8.326;2023-06-01T02:58:19;6.67;;;4.20;;
5483;SDS011;2764;48.794;8.326;2023-06-01T02:59:20;5.97;;;4.40;;
5483;SDS011;2764;48.794;8.326;2023-06-01T03:00:22;4.50;;;4.10;;
5483;SDS011;2764;48.794;8.326;2023-06-01T03:01:23;4.00;;;3.60;;
5483;SDS011;2764;48.794;8.326;2023-06-01T03:02:25;4.83;;;3.87;;
5483;SDS011;2764;48.794;8.326;2023-06-01T03:03:27;4.87;;;4.47;;
5483;SDS011;2764;48.794;8.326;2023-06-01T03:04:29;5.00;;;4.03;;
5483;SDS011;2764;48.794;8.326;2023-06-01T03:05:34;5.20;;;3.57;;
5483;SDS011;2764;48.794;8.326;2023-06-01T03:06:36;4.90;;;4.30;;
5483;SDS011;2764;48.794;8.326;2023-06-01T03:07:39;6.33;;;4.20;;
5483;SDS011;2764;48.794;8.326;2023-06-01T03:08:40;14.90;;;4.40;;
5483;SDS011;2764;48.794;8.326;2023-06-01T03:09:42;7.60;;;4.37;;
5483;SDS011;2764;48.794;8.326;2023-06-01T03:10:44;5.70;;;4.80;;
5483;SDS011;2764;48.794;8.326;2023-06-01T03:11:48;7.17;;;4.83;;
5483;SDS011;2764;48.794;8.326;2023-06-01T03:12:49;5.67;;;4.60;;
5483;SDS011;2764;48.794;8.326;2023-06-01T03:13:51;7.07;;;4.60;;
5483;SDS011;2764;48.794;8.326;2023-06-01T03:14:53;11.60;;;4.43;;
5483;SDS011;2764;48.794;8.326;2023-06-01T03:15:54;6.07;;;4.20;;
5483;SDS011;2764;48.794;8.326;2023-06-01T03:16:58;9.37;;;5.00;;
5483;SDS011;2764;48.794;8.326;2023-06-01T03:17:59;9.00;;;4.90;;
5483;SDS011;2764;48.794;8.326;2023-06-01T03:19:02;7.33;;;4.73;;
5483;SDS011;2764;48.794;8.326;2023-06-01T03:20:04;4.43;;;4.03;;
5483;SDS011;2764;48.794;8.326;2023-06-01T03:21:16;6.10;;;4.60;;
5483;SDS011;2764;48.794;8.326;2023-06-01T03:22:18;5.37;;;4.13;;
5483;SDS011;2764;48.794;8.326;2023-06-01T03:23:19;5.40;;;4.60;;
5483;SDS011;2764;48.794;8.326;2023-06-01T03:24:21;5.33;;;4.17;;
5483;SDS011;2764;48.794;8.326;2023-06-01T03:25:29;17.43;;;4.87;;
5483;SDS011;2764;48.794;8.326;2023-06-01T03:26:31;6.10;;;4.13;;
5483;SDS011;2764;48.794;8.326;2023-06-01T03:27:33;6.90;;;4.40;;
5483;SDS011;2764;48.794;8.326;2023-06-01T03:28:34;4.83;;;4.27;;
5483;SDS011;2764;48.794;8.326;2023-06-01T03:29:36;5.23;;;4.63;;
5483;SDS011;2764;48.794;8.326;2023-06-01T03:30:38;5.03;;;4.23;;
5483;SDS011;2764;48.794;8.326;2023-06-01T03:31:40;4.63;;;4.23;;
5483;SDS011;2764;48.794;8.326;2023-06-01T03:32:43;4.70;;;4.30;;
5483;SDS011;2764;48.794;8.326;2023-06-01T03:33:45;9.93;;;5.33;;
5483;SDS011;2764;48.794;8.326;2023-06-01T03:34:48;5.60;;;4.27;;
5483;SDS011;2764;48.794;8.326;2023-06-01T03:35:50;5.87;;;5.37;;
5483;SDS011;2764;48.794;8.326;2023-06-01T03:36:53;5.10;;;4.20;;
5483;SDS011;2764;48.794;8.326;2023-06-01T03:37:54;8.90;;;4.23;;
5483;SDS011;2764;48.794;8.326;2023-06-01T03:38:56;5.73;;;4.50;;
5483;SDS011;2764;48.794;8.326;2023-06-01T03:39:58;5.20;;;4.70;;
5483;SDS011;2764;48.794;8.326;2023-06-01T03:40:59;5.13;;;4.30;;
5483;SDS011;2764;48.794;8.326;2023-06-01T03:42:02;5.20;;;4.70;;
5483;SDS011;2764;48.794;8.326;2023-06-01T03:43:04;7.13;;;4.80;;
5483;SDS011;2764;48.794;8.326;2023-06-01T03:44:06;9.13;;;4.30;;
5483;SDS011;2764;48.794;8.326;2023-06-01T03:45:08;7.03;;;5.30;;
5483;SDS011;2764;48.794;8.326;2023-06-01T03:46:10;5.10;;;4.60;;
5483;SDS011;2764;48.794;8.326;2023-06-01T03:47:11;6.10;;;5.13;;
5483;SDS011;2764;48.794;8.326;2023-06-01T03:48:15;5.30;;;4.80;;
5483;SDS011;2764;48.794;8.326;2023-06-01T03:49:17;8.45;;;4.32;;
5483;SDS011;2764;48.794;8.326;2023-06-01T03:50:18;5.90;;;4.97;;
5483;SDS011;2764;48.794;8.326;2023-06-01T03:51:20;4.33;;;3.93;;
5483;SDS011;2764;48.794;8.326;2023-06-01T03:52:22;6.53;;;4.87;;
5483;SDS011;2764;48.794;8.326;2023-06-01T03:53:24;12.53;;;5.00;;
5483;SDS011;2764;48.794;8.326;2023-06-01T03:54:26;6.60;;;5.13;;
5483;SDS011;2764;48.794;8.326;2023-06-01T03:55:28;5.40;;;4.30;;
5483;SDS011;2764;48.794;8.326;2023-06-01T03:56:30;4.90;;;4.50;;
5483;SDS011;2764;48.794;8.326;2023-06-01T03:57:32;10.97;;;4.93;;
5483;SDS011;2764;48.794;8.326;2023-06-01T03:58:33;7.73;;;4.53;;
5483;SDS011;2764;48.794;8.326;2023-06-01T03:59:35;8.70;;;5.13;;
5483;SDS011;2764;48.794;8.326;2023-06-01T04:00:37;4.90;;;4.50;;
5483;SDS011;2764;48.794;8.326;2023-06-01T04:01:38;12.70;;;5.20;;
5483;SDS011;2764;48.794;8.326;2023-06-01T04:02:41;8.73;;;5.43;;
5483;SDS011;2764;48.794;8.326;2023-06-01T04:03:44;5.57;;;4.73;;
5483;SDS011;2764;48.794;8.326;2023-06-01T04:04:46;5.83;;;4.90;;
5483;SDS011;2764;48.794;8.326;2023-06-01T04:05:51;6.93;;;4.60;;
5483;SDS011;2764;48.794;8.326;2023-06-01T04:07:00;6.38;;;4.68;;
5483;SDS011;2764;48.794;8.326;2023-06-01T04:08:04;27.63;;;4.90;;
5483;SDS011;2764;48.794;8.326;2023-06-01T04:09:07;18.13;;;4.80;;
5483;SDS011;2764;48.794;8.326;2023-06-01T04:10:10;12.32;;;5.22;;
5483;SDS011;2764;48.794;8.326;2023-06-01T04:11:17;5.07;;;4.30;;
5483;SDS011;2764;48.794;8.326;2023-06-01T04:12:19;6.83;;;5.20;;
5483;SDS011;2764;48.794;8.326;2023-06-01T04:13:22;4.90;;;4.40;;
5483;SDS011;2764;48.794;8.326;2023-06-01T04:14:23;6.00;;;5.10;;
5483;SDS011;2764;48.794;8.326;2023-06-01T04:15:25;4.80;;;4.40;;
5483;SDS011;2764;48.794;8.326;2023-06-01T04:16:27;5.00;;;4.50;;
5483;SDS011;2764;48.794;8.326;2023-06-01T04:17:29;6.10;;;4.87;;
5483;SDS011;2764;48.794;8.326;2023-06-01T04:18:30;5.10;;;4.70;;
5483;SDS011;2764;48.794;8.326;2023-06-01T04:19:32;4.67;;;4.27;;
5483;SDS011;2764;48.794;8.326;2023-06-01T04:20:35;6.20;;;4.73;;
5483;SDS011;2764;48.794;8.326;2023-06-01T04:21:36;5.77;;;4.50;;
5483;SDS011;2764;48.794;8.326;2023-06-01T04:22:38;8.40;;;4.85;;
5483;SDS011;2764;48.794;8.326;2023-06-01T04:23:40;6.17;;;4.40;;
5483;SDS011;2764;48.794;8.326;2023-06-01T04:24:43;6.60;;;5.07;;
5483;SDS011;2764;48.794;8.326;2023-06-01T04:25:45;8.43;;;5.07;;
5483;SDS011;2764;48.794;8.326;2023-06-01T04:26:47;5.93;;;5.43;;
5483;SDS011;2764;48.794;8.326;2023-06-01T04:27:51;8.40;;;4.73;;
5483;SDS011;2764;48.794;8.326;2023-06-01T04:28:53;5.67;;;5.10;;
5483;SDS011;2764;48.794;8.326;2023-06-01T04:29:58;8.60;;;4.40;;
5483;SDS011;2764;48.794;8.326;2023-06-01T04:31:00;7.27;;;4.80;;
5483;SDS011;2764;48.794;8.326;2023-06-01T04:32:03;9.87;;;4.83;;
5483;SDS011;2764;48.794;8.326;2023-06-01T04:33:05;12.50;;;5.57;;
5483;SDS011;2764;48.794;8.326;2023-06-01T04:34:07;4.60;;;4.13;;
5483;SDS011;2764;48.794;8.326;2023-06-01T04:35:08;5.23;;;4.63;;
5483;SDS011;2764;48.794;8.326;2023-06-01T04:36:13;6.03;;;5.20;;
5483;SDS011;2764;48.794;8.326;2023-06-01T04:37:22;5.43;;;4.57;;
5483;SDS011;2764;48.794;8.326;2023-06-01T04:38:24;5.83;;;5.20;;
5483;SDS011;2764;48.794;8.326;2023-06-01T04:39:27;6.53;;;5.37;;
5483;SDS011;2764;48.794;8.326;2023-06-01T04:40:29;6.23;;;5.30;;
5483;SDS011;2764;48.794;8.326;2023-06-01T04:41:31;13.13;;;5.47;;
5483;SDS011;2764;48.794;8.326;2023-06-01T04:42:33;4.93;;;4.47;;
5483;SDS011;2764;48.794;8.326;2023-06-01T04:43:36;8.73;;;4.90;;
5483;SDS011;2764;48.794;8.326;2023-06-01T04:44:41;7.70;;;5.47;;
5483;SDS011;2764;48.794;8.326;2023-06-01T04:45:44;7.33;;;5.23;;
5483;SDS011;2764;48.794;8.326;2023-06-01T04:46:48;8.97;;;6.10;;
5483;SDS011;2764;48.794;8.326;2023-06-01T04:47:51;8.10;;;5.10;;
5483;SDS011;2764;48.794;8.326;2023-06-01T04:48:56;7.37;;;5.57;;
5483;SDS011;2764;48.794;8.326;2023-06-01T04:49:59;8.27;;;5.30;;
5483;SDS011;2764;48.794;8.326;2023-06-01T04:51:02;6.80;;;5.20;;
5483;SDS011;2764;48.794;8.326;2023-06-01T04:52:05;6.70;;;5.30;;
5483;SDS011;2764;48.794;8.326;2023-06-01T04:53:07;8.90;;;5.60;;
5483;SDS011;2764;48.794;8.326;2023-06-01T04:54:09;6.77;;;4.53;;
5483;SDS011;2764;48.794;8.326;2023-06-01T04:55:11;12.80;;;5.37;;
5483;SDS011;2764;48.794;8.326;2023-06-01T04:56:16;6.60;;;5.80;;
5483;SDS011;2764;48.794;8.326;2023-06-01T04:57:17;8.13;;;5.33;;
5483;SDS011;2764;48.794;8.326;2023-06-01T04:58:20;10.73;;;5.90;;
5483;SDS011;2764;48.794;8.326;2023-06-01T04:59:22;6.43;;;5.10;;
5483;SDS011;2764;48.794;8.326;2023-06-01T05:00:24;13.27;;;5.03;;
5483;SDS011;2764;48.794;8.326;2023-06-01T05:01:25;5.97;;;5.00;;
5483;SDS011;2764;48.794;8.326;2023-06-01T05:02:27;5.60;;;5.00;;
5483;SDS011;2764;48.794;8.326;2023-06-01T05:03:29;7.97;;;5.20;;
5483;SDS011;2764;48.794;8.326;2023-06-01T05:04:31;6.97;;;5.00;;
5483;SDS011;2764;48.794;8.326;2023-06-01T05:05:33;7.60;;;4.80;;
5483;SDS011;2764;48.794;8.326;2023-06-01T05:06:34;7.87;;;5.27;;
5483;SDS011;2764;48.794;8.326;2023-06-01T05:07:37;7.00;;;5.33;;
5483;SDS011;2764;48.794;8.326;2023-06-01T05:08:40;8.53;;;5.27;;
5483;SDS011;2764;48.794;8.326;2023-06-01T05:09:42;4.83;;;4.43;;
5483;SDS011;2764;48.794;8.326;2023-06-01T05:10:43;7.43;;;4.70;;
5483;SDS011;2764;48.794;8.326;2023-06-01T05:11:45;7.77;;;4.90;;
5483;SDS011;2764;48.794;8.326;2023-06-01T05:12:46;10.57;;;5.40;;
5483;SDS011;2764;48.794;8.326;2023-06-01T05:13:48;7.30;;;4.83;;
5483;SDS011;2764;48.794;8.326;2023-06-01T05:14:52;6.20;;;4.90;;
5483;SDS011;2764;48.794;8.326;2023-06-01T05:15:54;7.20;;;5.37;;
5483;SDS011;2764;48.794;8.326;2023-06-01T05:16:56;9.87;;;5.33;;
5483;SDS011;2764;48.794;8.326;2023-06-01T05:17:57;5.93;;;5.33;;
5483;SDS011;2764;48.794;8.326;2023-06-01T05:18:59;6.30;;;5.23;;
5483;SDS011;2764;48.794;8.326;2023-06-01T05:20:01;6.93;;;5.30;;
5483;SDS011;2764;48.794;8.326;2023-06-01T05:21:02;7.40;;;4.90;;
5483;SDS011;2764;48.794;8.326;2023-06-01T05:22:05;10.80;;;4.97;;
5483;SDS011;2764;48.794;8.326;2023-06-01T05:23:06;6.17;;;4.70;;
5483;SDS011;2764;48.794;8.326;2023-06-01T05:24:08;7.03;;;5.10;;
5483;SDS011;2764;48.794;8.326;2023-06-01T05:25:10;6.90;;;5.43;;
5483;SDS011;2764;48.794;8.326;2023-06-01T05:26:13;5.73;;;5.20;;
5483;SDS011;2764;48.794;8.326;2023-06-01T05:27:15;9.47;;;5.50;;
5483;SDS011;2764;48.794;8.326;2023-06-01T05:28:17;11.67;;;6.07;;
5483;SDS011;2764;48.794;8.326;2023-06-01T05:29:18;12.40;;;6.20;;
5483;SDS011;2764;48.794;8.326;2023-06-01T05:30:20;10.53;;;7.43;;
5483;SDS011;2764;48.794;8.326;2023-06-01T05:31:22;9.63;;;6.40;;
5483;SDS011;2764;48.794;8.326;2023-06-01T05:32:23;10.57;;;8.10;;
5483;SDS011;2764;48.794;8.326;2023-06-01T05:33:25;13.53;;;6.80;;
5483;SDS011;2764;48.794;8.326;2023-06-01T05:34:27;14.27;;;7.33;;
5483;SDS011;2764;48.794;8.326;2023-06-01T05:35:28;10.90;;;6.47;;
5483;SDS011;2764;48.794;8.326;2023-06-01T05:36:30;11.80;;;6.67;;
5483;SDS011;2764;48.794;8.326;2023-06-01T05:37:33;11.67;;;6.10;;
5483;SDS011;2764;48.794;8.326;2023-06-01T05:38:34;8.80;;;6.77;;
5483;SDS011;2764;48.794;8.326;2023-06-01T05:39:36;9.53;;;6.70;;
5483;SDS011;2764;48.794;8.326;2023-06-01T05:40:38;9.50;;;6.70;;
5483;SDS011;2764;48.794;8.326;2023-06-01T05:41:39;9.70;;;5.37;;
5483;SDS011;2764;48.794;8.326;2023-06-01T05:42:44;8.40;;;5.50;;
5483;SDS011;2764;48.794;8.326;2023-06-01T05:43:45;9.57;;;5.83;;
5483;SDS011;2764;48.794;8.326;2023-06-01T05:44:48;9.90;;;5.87;;
5483;SDS011;2764;48.794;8.326;2023-06-01T05:45:50;8.90;;;5.90;;
5483;SDS011;2764;48.794;8.326;2023-06-01T05:46:52;6.83;;;5.20;;
5483;SDS011;2764;48.794;8.326;2023-06-01T05:47:54;6.53;;;5.33;;
5483;SDS011;2764;48.794;8.326;2023-06-01T05:48:56;8.90;;;6.20;;
5483;SDS011;2764;48.794;8.326;2023-06-01T05:49:58;8.77;;;6.10;;
5483;SDS011;2764;48.794;8.326;2023-06-01T05:51:01;9.00;;;5.30;;
5483;SDS011;2764;48.794;8.326;2023-06-01T05:52:03;10.60;;;6.10;;
5483;SDS011;2764;48.794;8.326;2023-06-01T05:53:05;6.47;;;4.90;;
5483;SDS011;2764;48.794;8.326;2023-06-01T05:54:07;8.40;;;5.27;;
5483;SDS011;2764;48.794;8.326;2023-06-01T05:55:09;11.73;;;5.20;;
5483;SDS011;2764;48.794;8.326;2023-06-01T05:56:11;9.03;;;5.87;;
5483;SDS011;2764;48.794;8.326;2023-06-01T05:57:13;4.87;;;4.40;;
5483;SDS011;2764;48.794;8.326;2023-06-01T05:58:14;6.67;;;5.10;;
5483;SDS011;2764;48.794;8.326;2023-06-01T05:59:16;13.80;;;5.47;;
5483;SDS011;2764;48.794;8.326;2023-06-01T06:00:18;6.40;;;5.23;;
5483;SDS011;2764;48.794;8.326;2023-06-01T06:01:20;7.13;;;5.70;;
5483;SDS011;2764;48.794;8.326;2023-06-01T06:02:22;15.57;;;5.63;;
5483;SDS011;2764;48.794;8.326;2023-06-01T06:03:23;6.73;;;5.30;;
5483;SDS011;2764;48.794;8.326;2023-06-01T06:04:25;5.27;;;4.60;;
5483;SDS011;2764;48.794;8.326;2023-06-01T06:05:27;5.77;;;4.90;;
5483;SDS011;2764;48.794;8.326;2023-06-01T06:06:29;16.83;;;5.77;;
5483;SDS011;2764;48.794;8.326;2023-06-01T06:07:33;5.60;;;4.70;;
5483;SDS011;2764;48.794;8.326;2023-06-01T06:08:34;7.80;;;5.00;;
5483;SDS011;2764;48.794;8.326;2023-06-01T06:09:36;5.57;;;5.07;;
5483;SDS011;2764;48.794;8.326;2023-06-01T06:10:38;7.20;;;4.90;;
5483;SDS011;2764;48.794;8.326;2023-06-01T06:11:40;10.03;;;4.80;;
5483;SDS011;2764;48.794;8.326;2023-06-01T06:12:41;10.13;;;5.20;;
5483;SDS011;2764;48.794;8.326;2023-06-01T06:13:43;6.70;;;5.80;;
5483;SDS011;2764;48.794;8.326;2023-06-01T06:14:45;9.13;;;5.93;;
5483;SDS011;2764;48.794;8.326;2023-06-01T06:15:49;6.47;;;5.13;;
5483;SDS011;2764;48.794;8.326;2023-06-01T06:16:51;7.60;;;5.50;;
5483;SDS011;2764;48.794;8.326;2023-06-01T06:17:53;7.37;;;5.27;;
5483;SDS011;2764;48.794;8.326;2023-06-01T06:18:55;7.73;;;5.43;;
5483;SDS011;2764;48.794;8.326;2023-06-01T06:19:56;10.10;;;6.07;;
5483;SDS011;2764;48.794;8.326;2023-06-01T06:20:59;14.47;;;5.97;;
5483;SDS011;2764;48.794;8.326;2023-06-01T06:22:01;14.03;;;4.80;;
5483;SDS011;2764;48.794;8.326;2023-06-01T06:23:03;13.73;;;5.67;;
5483;SDS011;2764;48.794;8.326;2023-06-01T06:24:05;11.80;;;5.40;;
5483;SDS011;2764;48.794;8.326;2023-06-01T06:25:07;7.33;;;5.67;;
5483;SDS011;2764;48.794;8.326;2023-06-01T06:26:10;7.80;;;5.70;;
5483;SDS011;2764;48.794;8.326;2023-06-01T06:27:11;8.60;;;5.30;;
5483;SDS011;2764;48.794;8.326;2023-06-01T06:28:14;12.40;;;5.90;;
5483;SDS011;2764;48.794;8.326;2023-06-01T06:29:16;6.70;;;4.97;;
5483;SDS011;2764;48.794;8.326;2023-06-01T06:30:18;8.40;;;5.70;;
5483;SDS011;2764;48.794;8.326;2023-06-01T06:31:20;6.03;;;4.97;;
5483;SDS011;2764;48.794;8.326;2023-06-01T06:32:22;6.00;;;4.80;;
5483;SDS011;2764;48.794;8.326;2023-06-01T06:33:24;5.07;;;4.50;;
5483;SDS011;2764;48.794;8.326;2023-06-01T06:34:26;5.33;;;4.57;;
5483;SDS011;2764;48.794;8.326;2023-06-01T06:35:35;7.67;;;4.73;;
5483;SDS011;2764;48.794;8.326;2023-06-01T06:36:36;5.10;;;4.47;;
5483;SDS011;2764;48.794;8.326;2023-06-01T06:37:39;7.57;;;5.30;;
5483;SDS011;2764;48.794;8.326;2023-06-01T06:38:42;9.10;;;4.30;;
5483;SDS011;2764;48.794;8.326;2023-06-01T06:39:43;16.67;;;4.80;;
5483;SDS011;2764;48.794;8.326;2023-06-01T06:40:45;10.50;;;4.90;;
5483;SDS011;2764;48.794;8.326;2023-06-01T06:41:47;7.67;;;4.93;;
5483;SDS011;2764;48.794;8.326;2023-06-01T06:42:49;5.23;;;4.73;;